Map

Track Data

SID SEASON NUMBER BASIN SUBBASIN NAME ISO_TIME NATURE LAT LON WMO_WIND WMO_PRES WMO_AGENCY TRACK_TYPE DIST2LAND LANDFALL IFLAG USA_AGENCY USA_ATCF_ID USA_LAT USA_LON USA_RECORD USA_STATUS USA_WIND USA_PRES USA_SSHS USA_R34_NE USA_R34_SE USA_R34_SW USA_R34_NW USA_R50_NE USA_R50_SE USA_R50_SW USA_R50_NW USA_R64_NE USA_R64_SE USA_R64_SW USA_R64_NW USA_POCI USA_ROCI USA_RMW USA_EYE TOKYO_LAT TOKYO_LON TOKYO_GRADE TOKYO_WIND TOKYO_PRES TOKYO_R50_DIR TOKYO_R50_LONG TOKYO_R50_SHORT TOKYO_R30_DIR TOKYO_R30_LONG TOKYO_R30_SHORT TOKYO_LAND CMA_LAT CMA_LON CMA_CAT CMA_WIND CMA_PRES HKO_LAT HKO_LON HKO_CAT HKO_WIND HKO_PRES NEWDELHI_LAT NEWDELHI_LON NEWDELHI_GRADE NEWDELHI_WIND NEWDELHI_PRES NEWDELHI_CI NEWDELHI_DP NEWDELHI_POCI REUNION_LAT REUNION_LON REUNION_TYPE REUNION_WIND REUNION_PRES REUNION_TNUM REUNION_CI REUNION_RMW REUNION_R34_NE REUNION_R34_SE REUNION_R34_SW REUNION_R34_NW REUNION_R50_NE REUNION_R50_SE REUNION_R50_SW REUNION_R50_NW REUNION_R64_NE REUNION_R64_SE REUNION_R64_SW REUNION_R64_NW BOM_LAT BOM_LON BOM_TYPE BOM_WIND BOM_PRES BOM_TNUM BOM_CI BOM_RMW BOM_R34_NE BOM_R34_SE BOM_R34_SW BOM_R34_NW BOM_R50_NE BOM_R50_SE BOM_R50_SW BOM_R50_NW BOM_R64_NE BOM_R64_SE BOM_R64_SW BOM_R64_NW BOM_ROCI BOM_POCI BOM_EYE BOM_POS_METHOD BOM_PRES_METHOD NADI_LAT NADI_LON NADI_CAT NADI_WIND NADI_PRES WELLINGTON_LAT WELLINGTON_LON WELLINGTON_WIND WELLINGTON_PRES DS824_LAT DS824_LON DS824_STAGE DS824_WIND DS824_PRES TD9636_LAT TD9636_LON TD9636_STAGE TD9636_WIND TD9636_PRES TD9635_LAT TD9635_LON TD9635_WIND TD9635_PRES TD9635_ROCI NEUMANN_LAT NEUMANN_LON NEUMANN_CLASS NEUMANN_WIND NEUMANN_PRES MLC_LAT MLC_LON MLC_CLASS MLC_WIND MLC_PRES USA_GUST BOM_GUST BOM_GUST_PER REUNION_GUST REUNION_GUST_PER USA_SEAHGT USA_SEARAD_NE USA_SEARAD_SE USA_SEARAD_SW USA_SEARAD_NW STORM_SPEED STORM_DIR
1907193N15146 1907 31 WP MM NOT_NAMED 1907-07-11 16:00:00 NR 14.9000 146.300 main 1904 1904 __________O___ -1 14.9000 146.300 7 1 0
1907193N15146 1907 31 WP MM NOT_NAMED 1907-07-11 18:00:00 NR 14.9121 146.286 main 1904 1904 __________P___ -1 14.9121 146.286 7 1 298
1907193N15146 1907 31 WP MM NOT_NAMED 1907-07-11 21:00:00 NR 14.9319 146.238 main 1904 1904 __________P___ -1 14.9319 146.238 7 2 286
1907193N15146 1907 31 WP MM NOT_NAMED 1907-07-12 00:00:00 NR 14.9562 146.125 main 1916 1916 __________P___ -1 14.9562 146.125 7 3 280
1907193N15146 1907 31 WP MM NOT_NAMED 1907-07-12 03:00:00 NR 14.9876 145.904 main 1917 1917 __________P___ -1 14.9876 145.904 7 5 278
1907193N15146 1907 31 WP MM NOT_NAMED 1907-07-12 04:00:00 NR 15.0000 145.800 main 1917 1917 __________O___ -1 15.0000 145.800 7 7 277
1907193N15146 1907 31 WP MM NOT_NAMED 1907-07-12 06:00:00 NR 15.0280 145.541 main 1919 1919 __________P___ -1 15.0280 145.541 7 9 276
1907193N15146 1907 31 WP MM NOT_NAMED 1907-07-12 09:00:00 NR 15.0761 145.053 main 1933 1934 __________P___ -1 15.0761 145.053 7 10 276
1907193N15146 1907 31 WP MM NOT_NAMED 1907-07-12 12:00:00 NR 15.1285 144.487 main 1940 1940 __________P___ -1 15.1285 144.487 7 11 275
1907193N15146 1907 31 WP MM NOT_NAMED 1907-07-12 15:00:00 NR 15.1822 143.895 main 1960 1960 __________P___ -1 15.1822 143.895 7 11 275
1907193N15146 1907 31 WP MM NOT_NAMED 1907-07-12 16:00:00 NR 15.2000 143.700 main 1964 1963 __________O___ -1 15.2000 143.700 7 10 274
1907193N15146 1907 31 WP MM NOT_NAMED 1907-07-12 18:00:00 NR 15.2144 143.365 main 1963 1909 __________P___ -1 15.2144 143.365 7 10 273
1907193N15146 1907 31 WP MM NOT_NAMED 1907-07-12 21:00:00 NR 15.2359 142.864 main 1909 1847 __________P___ -1 15.2359 142.864 7 10 274
1907193N15146 1907 31 WP MM NOT_NAMED 1907-07-13 00:00:00 NR 15.2769 142.346 main 1847 1796 __________P___ -1 15.2769 142.346 7 10 277
1907193N15146 1907 31 WP MM NOT_NAMED 1907-07-13 03:00:00 NR 15.3595 141.795 main 1796 1775 __________P___ -1 15.3595 141.795 7 11 280
1907193N15146 1907 31 WP MM NOT_NAMED 1907-07-13 04:00:00 NR 15.4000 141.600 main 1775 1735 __________O___ -1 15.4000 141.600 7 12 284
1907193N15146 1907 31 WP MM NOT_NAMED 1907-07-13 06:00:00 NR 15.5101 141.179 main 1735 1665 __________P___ -1 15.5101 141.179 7 13 287
1907193N15146 1907 31 WP MM NOT_NAMED 1907-07-13 09:00:00 NR 15.7195 140.510 main 1665 1599 __________P___ -1 15.7195 140.510 7 14 289
1907193N15146 1907 31 WP MM NOT_NAMED 1907-07-13 12:00:00 NR 15.9621 139.817 main 1599 1533 __________P___ -1 15.9621 139.817 7 14 290
1907193N15146 1907 31 WP MM NOT_NAMED 1907-07-13 15:00:00 NR 16.2164 139.126 main 1533 1515 __________P___ -1 16.2164 139.126 7 14 291
1907193N15146 1907 31 WP MM NOT_NAMED 1907-07-13 16:00:00 NR 16.3000 138.900 main 1515 1477 __________O___ -1 16.3000 138.900 7 13 290
1907193N15146 1907 31 WP MM NOT_NAMED 1907-07-13 18:00:00 NR 16.4388 138.476 main 1477 1423 __________P___ -1 16.4388 138.476 7 13 289
1907193N15146 1907 31 WP MM NOT_NAMED 1907-07-13 21:00:00 NR 16.6473 137.854 main 1423 1364 __________P___ -1 16.6473 137.854 7 13 290
1907193N15146 1907 31 WP MM NOT_NAMED 1907-07-14 00:00:00 NR 16.8673 137.237 main 1364 1314 __________P___ -1 16.8673 137.237 7 13 291
1907193N15146 1907 31 WP MM NOT_NAMED 1907-07-14 03:00:00 NR 17.1112 136.612 main 1314 1299 __________P___ -1 17.1112 136.612 7 13 293
1907193N15146 1907 31 WP MM NOT_NAMED 1907-07-14 04:00:00 NR 17.2000 136.400 main 1299 1260 __________O___ -1 17.2000 136.400 7 14 293
1907193N15146 1907 31 WP MM NOT_NAMED 1907-07-14 06:00:00 NR 17.3781 135.948 main 1260 1214 __________P___ -1 17.3781 135.948 7 14 293
1907193N15146 1907 31 WP MM NOT_NAMED 1907-07-14 09:00:00 NR 17.6702 135.257 main 1219 1172 __________P___ -1 17.6702 135.257 7 15 295
1907193N15146 1907 31 WP MM NOT_NAMED 1907-07-14 12:00:00 NR 17.9977 134.571 main 1172 1128 __________P___ -1 17.9977 134.571 7 15 299
1907193N15146 1907 31 WP MM NOT_NAMED 1907-07-14 15:00:00 NR 18.3667 133.910 main 1132 1118 __________P___ -1 18.3667 133.910 7 15 301
1907193N15146 1907 31 WP MM NOT_NAMED 1907-07-14 16:00:00 NR 18.5000 133.700 main 1118 1091 __________O___ -1 18.5000 133.700 7 15 305
1907193N15146 1907 31 WP MM NOT_NAMED 1907-07-14 18:00:00 NR 18.7795 133.279 main 1096 1064 __________P___ -1 18.7795 133.279 7 15 307
1907193N15146 1907 31 WP MM NOT_NAMED 1907-07-14 21:00:00 NR 19.2370 132.678 main 1064 1040 __________P___ -1 19.2370 132.678 7 14 311
1907193N15146 1907 31 WP MM NOT_NAMED 1907-07-15 00:00:00 NR 19.7261 132.128 main 1040 996 __________P___ -1 19.7261 132.128 7 14 316
1907193N15146 1907 31 WP MM NOT_NAMED 1907-07-15 03:00:00 NR 20.2309 131.644 main 996 988 __________P___ -1 20.2309 131.644 7 13 319
1907193N15146 1907 31 WP MM NOT_NAMED 1907-07-15 04:00:00 NR 20.4000 131.500 main 990 967 __________O___ -1 20.4000 131.500 7 13 323
1907193N15146 1907 31 WP MM NOT_NAMED 1907-07-15 06:00:00 NR 20.7426 131.237 main 967 952 __________P___ -1 20.7426 131.237 7 12 327
1907193N15146 1907 31 WP MM NOT_NAMED 1907-07-15 09:00:00 NR 21.2639 130.906 main 955 938 __________P___ -1 21.2639 130.906 7 12 331
1907193N15146 1907 31 WP MM NOT_NAMED 1907-07-15 12:00:00 NR 21.7744 130.629 main 938 900 __________P___ -1 21.7744 130.629 7 11 334
1907193N15146 1907 31 WP MM NOT_NAMED 1907-07-15 15:00:00 NR 22.2520 130.381 main 900 887 __________P___ -1 22.2520 130.381 7 10 334
1907193N15146 1907 31 WP MM NOT_NAMED 1907-07-15 16:00:00 NR 22.4000 130.300 main 887 858 __________O___ -1 22.4000 130.300 3 10 330
1907193N15146 1907 31 WP MM NOT_NAMED 1907-07-15 18:00:00 NR 22.6621 130.121 main 858 830 __________P___ -1 22.6621 130.121 3 9 327
1907193N15146 1907 31 WP MM NOT_NAMED 1907-07-15 21:00:00 NR 23.0175 129.866 main 830 793 __________P___ -1 23.0175 129.866 3 8 326
1907193N15146 1907 31 WP MM NOT_NAMED 1907-07-16 00:00:00 NR 23.3498 129.621 main 793 763 __________P___ -1 23.3498 129.621 3 8 326
1907193N15146 1907 31 WP MM NOT_NAMED 1907-07-16 03:00:00 NR 23.6839 129.381 main 763 750 __________P___ -1 23.6839 129.381 3 8 327
1907193N15146 1907 31 WP MM NOT_NAMED 1907-07-16 04:00:00 NR 23.8000 129.300 main 750 724 __________O___ -1 23.8000 129.300 4 9 329
1907193N15146 1907 31 WP MM NOT_NAMED 1907-07-16 06:00:00 NR 24.0552 129.133 main 724 698 __________P___ -1 24.0552 129.133 4 9 330
1907193N15146 1907 31 WP MM NOT_NAMED 1907-07-16 09:00:00 NR 24.4506 128.883 main 698 664 __________P___ -1 24.4506 128.883 4 9 330
1907193N15146 1907 31 WP MM NOT_NAMED 1907-07-16 12:00:00 NR 24.8557 128.633 main 664 644 __________P___ -1 24.8557 128.633 4 9 331
1907193N15146 1907 31 WP MM NOT_NAMED 1907-07-16 15:00:00 NR 25.2642 128.383 main 644 634 __________P___ -1 25.2642 128.383 4 9 331
1907193N15146 1907 31 WP MM NOT_NAMED 1907-07-16 16:00:00 NR 25.4000 128.300 main 634 617 __________O___ -1 25.4000 128.300 4 9 330
1907193N15146 1907 31 WP MM NOT_NAMED 1907-07-16 18:00:00 NR 25.6745 128.128 main 617 602 __________P___ -1 25.6745 128.128 4 9 331
1907193N15146 1907 31 WP MM NOT_NAMED 1907-07-16 21:00:00 NR 26.0865 127.870 main 604 581 __________P___ -1 26.0865 127.870 4 9 331
1907193N15146 1907 31 WP MM NOT_NAMED 1907-07-17 00:00:00 NR 26.4903 127.617 main 582 551 __________P___ -1 26.4903 127.617 4 9 331
1907193N15146 1907 31 WP MM NOT_NAMED 1907-07-17 03:00:00 NR 26.8767 127.377 main 551 546 __________P___ -1 26.8767 127.377 4 9 331
1907193N15146 1907 31 WP MM NOT_NAMED 1907-07-17 04:00:00 NR 27.0000 127.300 main 546 532 __________O___ -1 27.0000 127.300 4 8 332
1907193N15146 1907 31 WP MM NOT_NAMED 1907-07-17 06:00:00 NR 27.2336 127.157 main 532 507 __________P___ -1 27.2336 127.157 4 8 332
1907193N15146 1907 31 WP MM NOT_NAMED 1907-07-17 09:00:00 NR 27.5652 126.956 main 507 490 __________P___ -1 27.5652 126.956 4 7 332
1907193N15146 1907 31 WP MM NOT_NAMED 1907-07-17 12:00:00 NR 27.8827 126.763 main 490 461 __________P___ -1 27.8827 126.763 4 7 331
1907193N15146 1907 31 WP MM NOT_NAMED 1907-07-17 15:00:00 NR 28.1953 126.567 main 461 449 __________P___ -1 28.1953 126.567 4 7 331
1907193N15146 1907 31 WP MM NOT_NAMED 1907-07-17 16:00:00 NR 28.3000 126.500 main 449 435 __________O___ -1 28.3000 126.500 4 7 330
1907193N15146 1907 31 WP MM NOT_NAMED 1907-07-17 18:00:00 NR 28.5118 126.361 main 435 400 __________P___ -1 28.5118 126.361 4 7 330
1907193N15146 1907 31 WP MM NOT_NAMED 1907-07-17 21:00:00 NR 28.8344 126.142 main 400 378 __________P___ -1 28.8344 126.142 4 8 329
1907193N15146 1907 31 WP MM NOT_NAMED 1907-07-18 00:00:00 NR 29.1612 125.913 main 378 358 __________P___ -1 29.1612 125.913 4 8 328
1907193N15146 1907 31 WP MM NOT_NAMED 1907-07-18 03:00:00 NR 29.4902 125.679 main 359 350 __________P___ -1 29.4902 125.679 4 8 328
1907193N15146 1907 31 WP MM NOT_NAMED 1907-07-18 04:00:00 NR 29.6000 125.600 main 351 __________O___ -1 29.6000 125.600 7 8 327

Digital Typhoon Data and Search

About IBTrACS Database

This database is a web-friendly format of International Best Track Archive for Climate Stewardship (IBTrACS), a global best track data archive curated by NOAA dating back to 1842.

Updated: 2021-12-01